Time;durP1;ratioP1;P1;durP2;ratioP2;P2;SDS_P1;SDS_P2;PMS_P1;PMS_P2;Temp;Humidity;BMP_temperature;BMP_pressure;BME280_temperature;BME280_humidity;BME280_pressure;Samples;Min_cycle;Max_cycle;Signal;HPM_P1;HPM_P2
2021/09/26 00:01:03;;;;;;;9.18;6.40;;;;;;;13.46;100.00;99371.59;1719610;83;20974;-82
2021/09/26 00:03:30;;;;;;;7.83;6.45;;;;;;;13.43;100.00;99363.42;1716024;83;20962;-81
2021/09/26 00:05:57;;;;;;;7.62;6.08;;;;;;;13.44;100.00;99371.13;1715529;83;20983;-82
2021/09/26 00:08:23;;;;;;;14.10;6.10;;;;;;;13.45;100.00;99369.98;1717661;83;20919;-81
2021/09/26 00:10:49;;;;;;;8.60;5.80;;;;;;;13.45;100.00;99370.79;1714652;83;21518;-82
2021/09/26 00:13:16;;;;;;;7.95;6.00;;;;;;;13.45;100.00;99374.12;1718845;83;20990;-82
2021/09/26 00:15:42;;;;;;;9.85;6.25;;;;;;;13.46;100.00;99375.73;1716495;83;21010;-81
2021/09/26 00:18:09;;;;;;;8.05;6.00;;;;;;;13.45;100.00;99375.50;1716455;83;21502;-81
2021/09/26 00:20:36;;;;;;;8.43;5.78;;;;;;;13.45;100.00;99368.61;1718683;83;21228;-81
2021/09/26 00:23:03;;;;;;;7.92;6.28;;;;;;;13.46;100.00;99378.48;1719621;83;21137;-81
2021/09/26 00:25:29;;;;;;;16.20;6.28;;;;;;;13.45;100.00;99377.69;1719601;83;20915;-81
2021/09/26 00:27:56;;;;;;;12.88;6.30;;;;;;;13.44;100.00;99377.45;1719802;83;20912;-81
2021/09/26 00:30:22;;;;;;;9.83;6.62;;;;;;;13.44;100.00;99382.16;1710476;83;20987;-81
2021/09/26 00:32:49;;;;;;;9.38;6.28;;;;;;;13.44;100.00;99380.20;1715071;83;21415;-80
2021/09/26 00:35:17;;;;;;;11.28;6.30;;;;;;;13.44;100.00;99380.78;1717772;83;21513;-81
2021/09/26 00:37:43;;;;;;;14.75;5.95;;;;;;;13.43;100.00;99381.92;1714667;83;21055;-81
2021/09/26 00:40:11;;;;;;;9.05;6.12;;;;;;;13.42;100.00;99378.93;1717644;83;21362;-81
2021/09/26 00:42:38;;;;;;;10.20;6.50;;;;;;;13.41;100.00;99388.34;1715944;83;21411;-81
2021/09/26 00:45:06;;;;;;;8.10;6.03;;;;;;;13.41;100.00;99390.53;1717652;83;20970;-81
2021/09/26 00:47:33;;;;;;;8.60;6.35;;;;;;;13.39;100.00;99386.50;1719578;83;21150;-81
2021/09/26 00:50:00;;;;;;;9.98;6.28;;;;;;;13.39;100.00;99391.44;1719579;82;21450;-82
2021/09/26 00:52:26;;;;;;;12.07;7.00;;;;;;;13.37;100.00;99388.22;1717356;83;21403;-81
2021/09/26 00:54:53;;;;;;;9.78;6.75;;;;;;;13.36;100.00;99392.12;1717188;83;20911;-81
2021/09/26 00:57:21;;;;;;;10.05;6.17;;;;;;;13.36;100.00;99392.12;1717087;83;20939;-80
2021/09/26 00:59:47;;;;;;;11.03;5.87;;;;;;;13.36;100.00;99395.45;1718881;83;20943;-80
2021/09/26 01:02:13;;;;;;;8.63;6.45;;;;;;;13.36;100.00;99391.31;1719468;83;20963;-80
2021/09/26 01:04:40;;;;;;;8.75;6.20;;;;;;;13.36;100.00;99396.83;1718322;83;20999;-81
2021/09/26 01:07:26;;;;;;;9.55;6.65;;;;;;;13.35;100.00;99394.64;1716602;83;20939;-81
2021/09/26 01:10:04;;;;;;;11.10;6.37;;;;;;;13.35;100.00;99399.34;1719867;83;20918;-81
2021/09/26 01:13:21;;;;;;;6.65;5.47;;;;;;;13.33;100.00;99395.55;1718572;83;21128;-81
2021/09/26 01:16:08;;;;;;;6.97;5.50;;;;;;;13.32;100.00;99405.53;1716991;82;21577;-81
2021/09/26 01:18:55;;;;;;;10.13;6.17;;;;;;;13.30;100.00;99400.93;1714638;83;20918;-81
2021/09/26 01:21:52;;;;;;;8.65;6.15;;;;;;;13.29;100.00;99406.20;1719564;83;20935;-81
2021/09/26 01:24:51;;;;;;;8.78;6.42;;;;;;;13.27;100.00;99405.77;1715512;83;20915;-81
2021/09/26 01:28:10;;;;;;;8.78;6.33;;;;;;;13.26;100.00;99412.42;1717141;83;21787;-81
2021/09/26 01:30:45;;;;;;;13.83;5.53;;;;;;;13.24;100.00;99412.77;1691074;84;20944;-81
2021/09/26 01:33:23;;;;;;;10.50;5.97;;;;;;;13.24;100.00;99413.33;1690441;84;21023;-81
2021/09/26 01:36:02;;;;;;;11.05;6.65;;;;;;;13.23;100.00;99420.80;1706931;83;21454;-81
2021/09/26 01:38:59;;;;;;;9.05;5.55;;;;;;;13.23;100.00;99422.17;1719516;83;20922;-81
2021/09/26 01:41:37;;;;;;;9.20;5.05;;;;;;;13.23;100.00;99422.74;1717417;82;21696;-81
2021/09/26 01:44:08;;;;;;;9.95;5.33;;;;;;;13.20;100.00;99420.89;1716903;82;20966;-81
2021/09/26 01:46:37;;;;;;;9.58;6.00;;;;;;;13.20;100.00;99425.60;1719195;83;20970;-81
2021/09/26 01:49:17;;;;;;;10.60;5.50;;;;;;;13.19;100.00;99426.74;1694979;83;20931;-81
2021/09/26 01:51:44;;;;;;;10.58;5.62;;;;;;;13.18;100.00;99423.75;1715507;83;20991;-81
2021/09/26 01:54:13;;;;;;;10.68;5.45;;;;;;;13.15;100.00;99429.33;1717254;83;21795;-81
2021/09/26 01:56:40;;;;;;;11.05;5.30;;;;;;;13.15;100.00;99427.95;1716216;83;21100;-81
2021/09/26 01:59:07;;;;;;;9.75;5.20;;;;;;;13.14;100.00;99433.80;1717724;83;21416;-81
2021/09/26 02:01:33;;;;;;;8.80;4.45;;;;;;;13.13;100.00;99438.51;1725145;83;21525;-81
2021/09/26 02:04:00;;;;;;;9.03;4.35;;;;;;;13.12;100.00;99438.84;1716739;83;20936;-81
2021/09/26 02:06:26;;;;;;;8.43;5.33;;;;;;;13.10;100.00;99428.72;1718180;83;21458;-80
2021/09/26 02:08:53;;;;;;;12.82;4.97;;;;;;;13.08;100.00;99431.81;1715534;83;20975;-81
2021/09/26 02:11:20;;;;;;;7.40;4.47;;;;;;;13.07;100.00;99438.47;1715196;83;20887;-80
2021/09/26 02:13:47;;;;;;;9.08;4.45;;;;;;;13.04;100.00;99433.62;1717303;83;20959;-80
2021/09/26 02:16:13;;;;;;;8.50;4.53;;;;;;;13.02;100.00;99440.04;1716341;83;20974;-80
2021/09/26 02:18:40;;;;;;;12.28;5.15;;;;;;;13.00;100.00;99444.27;1716796;83;21566;-80
2021/09/26 02:21:06;;;;;;;9.88;4.22;;;;;;;12.98;100.00;99446.55;1716298;83;20994;-80
2021/09/26 02:23:34;;;;;;;12.07;4.62;;;;;;;12.97;100.00;99444.37;1715473;83;20942;-81
2021/09/26 02:26:01;;;;;;;12.85;5.00;;;;;;;12.95;100.00;99451.35;1714486;83;21038;-81
2021/09/26 02:28:27;;;;;;;8.48;4.28;;;;;;;12.93;100.00;99458.58;1716584;83;20887;-80
2021/09/26 02:30:54;;;;;;;9.65;4.50;;;;;;;12.90;100.00;99462.80;1716591;83;21463;-80
2021/09/26 02:33:20;;;;;;;8.70;4.65;;;;;;;12.89;100.00;99465.89;1718451;83;21362;-81
2021/09/26 02:35:46;;;;;;;9.10;4.28;;;;;;;12.87;100.00;99470.35;1719981;83;20926;-81
2021/09/26 02:38:13;;;;;;;6.28;4.08;;;;;;;12.85;100.00;99466.31;1719567;83;20935;-81
2021/09/26 02:40:42;;;;;;;8.33;3.90;;;;;;;12.82;100.00;99465.03;1718382;83;20835;-81
2021/09/26 02:43:20;;;;;;;9.38;4.17;;;;;;;12.81;100.00;99466.74;1717183;83;21137;-80
2021/09/26 02:45:55;;;;;;;8.38;4.12;;;;;;;12.78;100.00;99475.67;1718948;82;21422;-81
2021/09/26 02:48:27;;;;;;;9.48;4.30;;;;;;;12.77;100.00;99483.13;1719607;83;21501;-81
2021/09/26 02:50:54;;;;;;;;;;;;;;;12.76;100.00;99475.20;1722154;82;20918;-81
2021/09/26 02:53:20;;;;;;;7.22;4.25;;;;;;;12.77;100.00;99480.94;1690925;83;20167;-81
2021/09/26 02:55:48;;;;;;;9.80;4.17;;;;;;;12.75;100.00;99477.71;1719736;83;21738;-81
2021/09/26 02:58:15;;;;;;;8.25;3.37;;;;;;;12.73;100.00;99478.61;1719388;82;20970;-81
2021/09/26 03:00:44;;;;;;;9.28;4.15;;;;;;;12.71;100.00;99483.08;1717755;82;21050;-81
2021/09/26 03:03:20;;;;;;;6.20;3.87;;;;;;;12.71;100.00;99489.18;1719476;83;21560;-81
2021/09/26 03:05:48;;;;;;;7.85;3.98;;;;;;;12.70;100.00;99484.24;1717574;83;20923;-81
2021/09/26 03:08:15;;;;;;;8.95;4.30;;;;;;;12.69;100.00;99499.72;1717729;83;20979;-80
2021/09/26 03:10:43;;;;;;;9.43;3.98;;;;;;;12.67;100.00;99496.48;1716723;83;20872;-81
2021/09/26 03:13:09;;;;;;;10.28;3.83;;;;;;;12.64;100.00;99500.71;1717892;83;21120;-81
2021/09/26 03:15:36;;;;;;;7.83;4.20;;;;;;;12.62;100.00;99507.12;1719468;83;20879;-80
2021/09/26 03:18:03;;;;;;;6.75;3.80;;;;;;;12.62;100.00;99505.74;1719984;82;20939;-79
2021/09/26 03:20:30;;;;;;;12.93;3.85;;;;;;;12.61;100.00;99519.27;1717265;83;21505;-80
2021/09/26 03:22:56;;;;;;;10.35;4.25;;;;;;;12.61;100.00;99518.46;1717164;83;20883;-81
2021/09/26 03:25:22;;;;;;;8.28;4.35;;;;;;;12.59;100.00;99518.80;1715406;82;20991;-81
2021/09/26 03:27:49;;;;;;;13.30;4.03;;;;;;;12.56;100.00;99519.45;1717309;82;20863;-81
2021/09/26 03:30:18;;;;;;;7.87;4.00;;;;;;;12.55;100.00;99521.39;1719453;82;21419;-81
2021/09/26 03:32:45;;;;;;;10.58;4.22;;;;;;;12.54;100.00;99521.16;1696391;83;22154;-81
2021/09/26 03:35:12;;;;;;;8.63;3.92;;;;;;;12.52;100.00;99522.05;1715479;83;20927;-82
2021/09/26 03:37:39;;;;;;;10.72;3.75;;;;;;;12.52;100.00;99528.94;1719478;83;20883;-81
2021/09/26 03:40:07;;;;;;;9.60;4.92;;;;;;;12.52;100.00;99528.94;1719492;83;20959;-81
2021/09/26 03:42:34;;;;;;;10.68;4.33;;;;;;;12.51;100.00;99519.63;1716725;83;20982;-81
2021/09/26 03:45:01;;;;;;;9.45;4.67;;;;;;;12.50;100.00;99525.70;1719437;83;21185;-81
2021/09/26 03:47:27;;;;;;;12.23;4.55;;;;;;;12.51;100.00;99519.63;1718575;83;21065;-81
2021/09/26 03:49:54;;;;;;;8.35;4.40;;;;;;;12.49;100.00;99519.15;1717668;83;21549;-81
2021/09/26 03:52:20;;;;;;;10.08;5.22;;;;;;;12.47;100.00;99526.36;1717118;83;20951;-81
2021/09/26 03:54:50;;;;;;;9.30;5.22;;;;;;;12.46;100.00;99520.61;1715363;82;20847;-80
2021/09/26 03:57:15;;;;;;;7.72;5.08;;;;;;;12.45;100.00;99530.02;1715675;83;21614;-80
2021/09/26 03:59:41;;;;;;;13.35;6.15;;;;;;;12.43;100.00;99530.91;1700431;83;20986;-80
2021/09/26 04:02:09;;;;;;;10.08;5.00;;;;;;;12.41;100.00;99524.11;1702792;83;20941;-80
2021/09/26 04:04:36;;;;;;;15.03;5.62;;;;;;;12.40;100.00;99526.63;1693595;83;21190;-78
2021/09/26 04:07:03;;;;;;;10.08;5.12;;;;;;;12.39;100.00;99530.52;1685730;83;21025;-79
2021/09/26 04:09:29;;;;;;;8.65;4.10;;;;;;;12.37;100.00;99526.71;1697836;83;21184;-78
2021/09/26 04:11:55;;;;;;;14.25;4.50;;;;;;;12.35;100.00;99529.55;1694528;83;20970;-79
2021/09/26 04:14:22;;;;;;;12.43;4.47;;;;;;;12.32;100.00;99529.64;1706466;83;20894;-81
2021/09/26 04:16:50;;;;;;;11.00;4.42;;;;;;;12.30;100.00;99535.23;1707691;83;20910;-79
2021/09/26 04:19:17;;;;;;;13.93;5.78;;;;;;;12.27;100.00;99529.81;1704168;83;20894;-80
2021/09/26 04:21:44;;;;;;;11.22;4.25;;;;;;;12.24;100.00;99534.02;1703772;82;21118;-80
2021/09/26 04:24:12;;;;;;;15.00;5.05;;;;;;;12.20;100.00;99536.37;1663276;84;21021;-79
2021/09/26 04:26:38;;;;;;;8.03;5.22;;;;;;;12.17;100.00;99535.66;1678743;84;20938;-78
2021/09/26 04:29:05;;;;;;;9.95;4.60;;;;;;;12.15;100.00;99540.67;1687064;83;21014;-78
2021/09/26 04:31:31;;;;;;;10.70;4.75;;;;;;;12.13;100.00;99541.59;1702890;83;21084;-77
2021/09/26 04:33:58;;;;;;;15.90;5.58;;;;;;;12.11;100.00;99539.73;1708045;83;21167;-78
2021/09/26 04:36:24;;;;;;;12.58;5.58;;;;;;;12.10;100.00;99543.63;1687177;83;20967;-78
2021/09/26 04:38:51;;;;;;;10.03;4.75;;;;;;;12.09;100.00;99546.14;1661348;85;21601;-78
2021/09/26 04:41:17;;;;;;;9.40;5.08;;;;;;;12.09;100.00;99548.89;1667989;85;21004;-78
2021/09/26 04:43:44;;;;;;;11.50;4.30;;;;;;;12.09;100.00;99555.77;1667446;85;21041;-79
2021/09/26 04:46:10;;;;;;;10.15;4.70;;;;;;;12.07;100.00;99555.28;1678092;84;21510;-79
2021/09/26 04:48:37;;;;;;;10.82;4.70;;;;;;;12.04;100.00;99560.88;1703988;84;20862;-78
2021/09/26 04:51:03;;;;;;;14.10;5.22;;;;;;;12.04;100.00;99562.25;1690342;83;21537;-79
2021/09/26 04:53:30;;;;;;;13.90;5.58;;;;;;;12.07;100.00;99560.78;1696237;83;20956;-79
2021/09/26 04:55:56;;;;;;;11.53;5.17;;;;;;;12.11;100.00;99565.87;1707500;84;20883;-78
2021/09/26 04:58:23;;;;;;;12.05;4.75;;;;;;;12.19;100.00;99567.79;1707839;83;21053;-79
2021/09/26 05:00:50;;;;;;;10.53;5.15;;;;;;;12.28;100.00;99575.47;1687562;83;20890;-78
2021/09/26 05:03:17;;;;;;;15.10;5.20;;;;;;;12.41;100.00;99575.85;1685910;83;20941;-80
2021/09/26 05:05:43;;;;;;;11.48;5.17;;;;;;;12.56;100.00;99571.77;1688270;83;21061;-76
2021/09/26 05:08:10;;;;;;;10.08;4.92;;;;;;;12.65;100.00;99578.06;1707720;83;21453;-82
2021/09/26 05:10:37;;;;;;;11.57;5.37;;;;;;;12.73;100.00;99584.66;1693193;83;21487;-80
2021/09/26 05:13:04;;;;;;;10.78;4.78;;;;;;;12.77;100.00;99580.91;1704008;83;20902;-80
2021/09/26 05:15:30;;;;;;;10.95;4.70;;;;;;;12.83;100.00;99576.03;1708053;83;20863;-81
2021/09/26 05:17:57;;;;;;;11.95;4.62;;;;;;;12.85;100.00;99580.08;1691264;83;21021;-82
2021/09/26 05:20:23;;;;;;;10.70;4.53;;;;;;;12.87;100.00;99586.06;1689528;83;20886;-71
2021/09/26 05:22:50;;;;;;;12.78;4.40;;;;;;;12.90;100.00;99581.84;1702689;83;21488;-75
2021/09/26 05:25:16;;;;;;;15.30;4.62;;;;;;;12.93;100.00;99590.83;1707981;84;20886;-78
2021/09/26 05:27:43;;;;;;;14.20;4.45;;;;;;;12.95;100.00;99591.30;1698970;83;20914;-81
2021/09/26 05:30:11;;;;;;;9.13;4.58;;;;;;;13.00;100.00;99586.18;1698512;83;21407;-79
2021/09/26 05:32:38;;;;;;;13.22;5.50;;;;;;;13.04;100.00;99583.00;1700954;83;21104;-78
2021/09/26 05:35:06;;;;;;;11.60;4.62;;;;;;;13.07;100.00;99590.05;1689294;83;21732;-78
2021/09/26 05:37:33;;;;;;;15.93;5.08;;;;;;;13.09;100.00;99602.11;1707270;83;21714;-79
2021/09/26 05:39:59;;;;;;;10.80;4.78;;;;;;;13.09;100.00;99605.67;1700056;83;21501;-80
2021/09/26 05:42:26;;;;;;;11.50;4.53;;;;;;;13.09;100.00;99613.95;1701249;84;20913;-83
2021/09/26 05:44:52;;;;;;;11.88;4.62;;;;;;;13.09;100.00;99613.13;1707707;83;21540;-82
2021/09/26 05:47:19;;;;;;;18.40;5.00;;;;;;;13.08;100.00;99606.81;1707870;84;21466;-80
2021/09/26 05:49:46;;;;;;;13.08;4.35;;;;;;;13.11;100.00;99609.48;1694665;83;20863;-83
2021/09/26 05:52:12;;;;;;;16.50;4.30;;;;;;;13.15;100.00;99609.06;1695588;83;20977;-82
2021/09/26 05:54:40;;;;;;;10.82;4.53;;;;;;;13.19;100.00;99611.42;1704070;83;20870;-80
2021/09/26 05:57:07;;;;;;;10.10;4.62;;;;;;;13.23;100.00;99603.30;1700056;83;21107;-83
2021/09/26 05:59:37;;;;;;;9.40;4.40;;;;;;;13.28;100.00;99605.30;1680469;82;21805;-74
2021/09/26 06:02:02;;;;;;;9.78;4.55;;;;;;;13.37;100.00;99607.98;1685454;83;20981;-82
2021/09/26 06:04:29;;;;;;;9.13;3.72;;;;;;;13.46;100.00;99597.72;1685923;83;21430;-82
2021/09/26 06:06:56;;;;;;;14.13;4.22;;;;;;;13.56;100.00;99593.19;1697078;83;21002;-82
2021/09/26 06:09:22;;;;;;;12.45;3.83;;;;;;;13.74;100.00;99595.27;1685772;83;21512;-80
2021/09/26 06:11:49;;;;;;;14.45;3.92;;;;;;;13.91;100.00;99602.59;1700899;83;21491;-80
2021/09/26 06:14:16;;;;;;;9.33;4.17;;;;;;;13.98;100.00;99613.32;1706561;83;21438;-83
2021/09/26 06:16:42;;;;;;;10.20;3.90;;;;;;;14.00;100.00;99617.94;1707753;84;20992;-80
2021/09/26 06:19:08;;;;;;;11.20;3.72;;;;;;;14.03;100.00;99622.78;1700985;84;21004;-74
2021/09/26 06:21:35;;;;;;;10.80;3.62;;;;;;;14.05;100.00;99625.20;1701831;83;20969;-78
2021/09/26 06:24:01;;;;;;;16.75;4.17;;;;;;;14.05;100.00;99623.83;1689292;83;21052;-75
2021/09/26 06:26:28;;;;;;;21.17;4.70;;;;;;;14.03;98.61;99623.35;1700332;83;20905;-76
2021/09/26 06:28:54;;;;;;;16.87;4.12;;;;;;;14.02;99.09;99621.73;1707495;83;20997;-75
2021/09/26 06:31:20;;;;;;;9.60;3.67;;;;;;;14.05;98.01;99630.16;1697380;84;20950;-76
2021/09/26 06:33:47;;;;;;;11.97;4.12;;;;;;;14.10;97.88;99634.09;1707699;83;21402;-77
2021/09/26 06:36:13;;;;;;;16.55;3.95;;;;;;;14.21;97.34;99642.20;1699740;83;21480;-74
2021/09/26 06:38:40;;;;;;;13.35;3.83;;;;;;;14.34;93.75;99640.89;1697079;83;21017;-76
2021/09/26 06:41:06;;;;;;;17.62;3.80;;;;;;;14.41;90.90;99632.32;1680888;83;21013;-83
2021/09/26 06:43:32;;;;;;;10.82;3.12;;;;;;;14.47;90.92;99635.08;1687953;82;21175;-80
2021/09/26 06:45:59;;;;;;;11.20;3.72;;;;;;;14.53;90.87;99637.06;1666023;83;21075;-80
2021/09/26 06:48:25;;;;;;;8.15;2.77;;;;;;;14.62;90.24;99642.50;1683925;84;22101;-84
2021/09/26 06:50:51;;;;;;;12.85;3.33;;;;;;;14.70;89.89;99644.38;1691382;84;21028;-80
2021/09/26 06:53:18;;;;;;;12.20;3.60;;;;;;;14.74;88.59;99648.88;1691553;84;20906;-78
2021/09/26 06:55:44;;;;;;;15.70;3.85;;;;;;;14.84;87.38;99652.59;1694143;82;20961;-77
2021/09/26 06:58:11;;;;;;;10.13;3.15;;;;;;;14.99;86.58;99646.17;1692634;84;21041;-78
2021/09/26 07:00:37;;;;;;;11.00;3.37;;;;;;;15.18;86.00;99643.08;1699837;84;22128;-78
2021/09/26 07:03:03;;;;;;;7.65;3.40;;;;;;;15.32;80.97;99653.00;1691501;84;20976;-81
2021/09/26 07:05:30;;;;;;;18.52;3.55;;;;;;;15.50;80.56;99659.92;1681227;84;20915;-79
2021/09/26 07:07:57;;;;;;;8.50;3.17;;;;;;;15.60;78.63;99653.94;1688866;84;21597;-77
2021/09/26 07:10:24;;;;;;;12.53;3.50;;;;;;;15.82;79.64;99646.54;1699140;83;21102;-79
2021/09/26 07:12:50;;;;;;;10.82;3.22;;;;;;;16.19;78.27;99653.36;1675431;83;21078;-75
2021/09/26 07:15:17;;;;;;;14.30;3.95;;;;;;;16.61;76.95;99645.48;1695088;84;20947;-74
2021/09/26 07:17:44;;;;;;;15.70;3.60;;;;;;;16.80;70.39;99651.17;1685427;83;21051;-76
2021/09/26 07:20:11;;;;;;;13.65;3.40;;;;;;;16.89;70.73;99655.16;1704174;84;21512;-76
2021/09/26 07:22:40;;;;;;;10.30;3.02;;;;;;;16.91;70.00;99657.58;1693535;82;20953;-74
2021/09/26 07:25:08;;;;;;;12.53;3.45;;;;;;;16.71;69.64;99651.94;1662204;85;21228;-74
2021/09/26 07:27:34;;;;;;;11.22;3.58;;;;;;;16.46;69.68;99655.94;1666912;85;20984;-75
2021/09/26 07:30:04;;;;;;;10.40;3.12;;;;;;;16.29;72.01;99658.99;1671326;85;21495;-73
2021/09/26 07:32:30;;;;;;;14.05;4.22;;;;;;;16.38;72.73;99663.81;1670989;86;20937;-77
2021/09/26 07:34:57;;;;;;;11.97;3.33;;;;;;;16.49;70.70;99670.47;1674095;82;20957;-68
2021/09/26 07:37:23;;;;;;;10.08;3.52;;;;;;;16.50;70.08;99678.44;1681867;83;21154;-70
2021/09/26 07:39:50;;;;;;;13.32;3.62;;;;;;;16.39;69.33;99673.16;1699050;82;20933;-74
2021/09/26 07:42:18;;;;;;;10.80;3.40;;;;;;;16.26;71.65;99680.47;1688289;83;20932;-74
2021/09/26 07:44:44;;;;;;;13.00;3.10;;;;;;;16.17;70.71;99684.18;1704442;84;20984;-74
2021/09/26 07:47:11;;;;;;;7.10;2.85;;;;;;;16.04;71.18;99684.58;1705073;83;20920;-75
2021/09/26 07:49:37;;;;;;;10.95;3.92;;;;;;;15.92;69.92;99686.78;1704546;84;21806;-74
2021/09/26 07:52:04;;;;;;;16.27;3.85;;;;;;;15.75;70.89;99686.45;1705875;83;21027;-73
2021/09/26 07:54:31;;;;;;;14.98;4.25;;;;;;;15.89;71.01;99693.02;1702706;84;20908;-69
2021/09/26 07:56:59;;;;;;;12.15;3.50;;;;;;;16.36;70.41;99686.33;1702730;83;20916;-70
2021/09/26 07:59:26;;;;;;;14.38;3.35;;;;;;;17.10;70.65;99679.31;1698828;83;20944;-71
2021/09/26 08:01:54;;;;;;;10.63;3.62;;;;;;;17.77;67.54;99685.77;1702651;83;22006;-71
2021/09/26 08:04:21;;;;;;;14.85;3.85;;;;;;;18.03;63.73;99678.80;1702573;83;21542;-71
2021/09/26 08:06:48;;;;;;;12.18;2.98;;;;;;;17.92;63.13;99685.49;1706243;84;21061;-72
2021/09/26 08:09:15;;;;;;;11.10;3.35;;;;;;;17.74;63.25;99682.33;1706400;84;21061;-71
2021/09/26 08:11:42;;;;;;;13.13;3.05;;;;;;;17.71;64.08;99680.27;1699873;83;20987;-71
2021/09/26 08:14:09;;;;;;;8.18;3.00;;;;;;;18.03;62.69;99675.44;1705784;83;21153;-71
2021/09/26 08:16:36;;;;;;;16.45;4.08;;;;;;;18.49;59.92;99685.34;1703145;83;21736;-71
2021/09/26 08:19:03;;;;;;;14.30;3.55;;;;;;;18.77;58.67;99676.81;1681756;83;21048;-70
2021/09/26 08:21:30;;;;;;;245.88;31.35;;;;;;;18.88;55.35;99675.05;1691780;83;21061;-71
2021/09/26 08:23:56;;;;;;;89.32;14.95;;;;;;;19.04;55.93;99678.53;1674491;83;20897;-71
2021/09/26 08:26:24;;;;;;;79.67;12.07;;;;;;;19.39;55.41;99681.13;1668827;85;21040;-71
2021/09/26 08:28:51;;;;;;;72.97;14.23;;;;;;;19.83;57.55;99682.64;1659442;85;21598;-71
2021/09/26 08:31:18;;;;;;;94.60;19.87;;;;;;;20.07;52.11;99678.04;1670983;86;21453;-70
2021/09/26 08:33:44;;;;;;;13.50;3.52;;;;;;;20.07;52.92;99678.84;1663484;85;20980;-70
2021/09/26 08:36:11;;;;;;;14.90;4.05;;;;;;;20.00;50.56;99679.33;1669140;83;21402;-70
2021/09/26 08:38:38;;;;;;;11.28;2.80;;;;;;;19.67;50.37;99686.97;1692803;83;21116;-69
2021/09/26 08:41:04;;;;;;;9.30;2.65;;;;;;;19.31;51.68;99682.77;1686784;83;20986;-69
2021/09/26 08:43:31;;;;;;;11.03;2.72;;;;;;;19.10;52.74;99683.98;1707727;83;21052;-70
2021/09/26 08:45:58;;;;;;;11.18;3.55;;;;;;;18.95;52.38;99693.85;1689743;84;20973;-70
2021/09/26 08:48:24;;;;;;;242.87;35.33;;;;;;;18.77;54.15;99689.33;1707680;84;21000;-70
2021/09/26 08:50:51;;;;;;;94.97;19.80;;;;;;;18.61;55.32;99703.30;1707900;84;22150;-72
2021/09/26 08:53:21;;;;;;;22.55;6.47;;;;;;;18.54;54.72;99689.81;1700354;83;20886;-70
2021/09/26 08:55:47;;;;;;;62.93;12.35;;;;;;;18.35;55.04;99708.11;1705136;84;20929;-70
2021/09/26 08:58:17;;;;;;;17.12;4.40;;;;;;;18.18;55.31;99707.70;1691448;83;20917;-70
2021/09/26 09:00:44;;;;;;;271.80;48.35;;;;;;;18.01;55.99;99704.73;1685619;84;21008;-71
2021/09/26 09:03:12;;;;;;;194.37;39.60;;;;;;;17.97;57.42;99701.08;1698111;84;22138;-70
2021/09/26 09:05:42;;;;;;;22.45;4.67;;;;;;;18.10;58.18;99702.57;1694674;82;20958;-70
2021/09/26 09:08:13;;;;;;;13.78;3.83;;;;;;;18.29;56.61;99704.00;1664631;84;20966;-70
2021/09/26 09:10:52;;;;;;;12.55;3.30;;;;;;;18.51;56.36;99700.27;1664655;85;20940;-70
2021/09/26 09:13:35;;;;;;;12.18;2.87;;;;;;;18.85;56.49;99689.69;1671257;86;20925;-70
2021/09/26 09:16:06;;;;;;;12.70;3.37;;;;;;;19.41;55.13;99686.33;1670873;86;21134;-70
2021/09/26 09:18:46;;;;;;;10.98;3.33;;;;;;;19.81;54.11;99687.78;1666190;85;20943;-70
2021/09/26 09:21:26;;;;;;;12.05;3.02;;;;;;;20.09;53.08;99694.59;1662809;85;21500;-69
2021/09/26 09:24:12;;;;;;;9.68;2.95;;;;;;;20.14;52.82;99680.92;1663427;85;21073;-70
2021/09/26 09:26:40;;;;;;;10.18;3.35;;;;;;;20.15;52.26;99682.53;1654706;85;21428;-70
2021/09/26 09:29:07;;;;;;;10.13;2.80;;;;;;;20.25;50.90;99684.64;1663459;85;21436;-70
2021/09/26 09:31:34;;;;;;;10.15;3.75;;;;;;;20.48;51.54;99675.41;1670641;85;20992;-69
2021/09/26 09:34:04;;;;;;;12.85;3.15;;;;;;;20.54;50.04;99680.87;1661930;85;20959;-69
2021/09/26 09:36:31;;;;;;;10.78;3.15;;;;;;;20.52;51.48;99677.66;1662465;85;21068;-72
2021/09/26 09:39:02;;;;;;;11.05;2.85;;;;;;;20.57;50.84;99684.30;1661775;85;20962;-73
2021/09/26 09:41:41;;;;;;;16.05;3.52;;;;;;;20.27;50.33;99681.47;1670957;85;21176;-72
2021/09/26 09:44:10;;;;;;;11.25;3.30;;;;;;;19.90;50.18;99680.77;1664938;85;20987;-72
2021/09/26 09:46:45;;;;;;;12.07;3.05;;;;;;;19.80;50.27;99686.98;1666759;85;20912;-73
2021/09/26 09:49:20;;;;;;;10.65;3.75;;;;;;;19.69;48.64;99690.18;1667258;85;21125;-72
2021/09/26 09:51:59;;;;;;;10.35;3.45;;;;;;;19.59;49.51;99690.25;1665019;85;20956;-75
2021/09/26 09:54:32;;;;;;;12.33;3.35;;;;;;;19.69;51.11;99690.98;1658192;84;21530;-79
2021/09/26 09:57:10;;;;;;;10.68;2.45;;;;;;;19.99;50.09;99688.86;1666284;86;21004;-69
2021/09/26 09:59:37;;;;;;;7.40;2.80;;;;;;;20.30;48.97;99691.28;1666367;85;20915;-71
2021/09/26 10:02:04;;;;;;;9.68;3.35;;;;;;;20.41;47.67;99695.05;1665007;85;20995;-74
2021/09/26 10:04:39;;;;;;;10.38;3.08;;;;;;;20.28;47.10;99697.02;1669910;85;20896;-73
2021/09/26 10:07:26;;;;;;;5.75;2.35;;;;;;;20.15;49.30;99683.93;1662514;83;21831;-73
2021/09/26 10:09:53;;;;;;;11.03;2.20;;;;;;;20.28;47.71;99690.05;1695396;83;21484;-79
2021/09/26 10:12:30;;;;;;;7.40;2.52;;;;;;;20.44;47.88;99688.72;1687990;83;20966;-69
2021/09/26 10:15:02;;;;;;;8.10;2.60;;;;;;;20.53;43.90;99684.25;1703559;83;20917;-68
2021/09/26 10:17:29;;;;;;;10.18;2.90;;;;;;;20.58;45.79;99685.91;1687098;83;20867;-66
2021/09/26 10:19:56;;;;;;;6.00;2.30;;;;;;;20.76;44.39;99689.13;1699454;84;21148;-73
2021/09/26 10:22:24;;;;;;;9.43;3.22;;;;;;;20.92;43.24;99695.05;1692773;82;21020;-73
2021/09/26 10:24:54;;;;;;;7.08;2.62;;;;;;;20.95;44.65;99685.92;1704918;83;21485;-74
2021/09/26 10:27:24;;;;;;;10.18;2.77;;;;;;;21.15;44.32;99681.75;1703979;83;21119;-68
2021/09/26 10:29:54;;;;;;;9.45;3.30;;;;;;;21.29;44.43;99680.53;1707609;83;20950;-77
2021/09/26 10:32:20;;;;;;;10.38;3.25;;;;;;;21.57;45.15;99686.94;1703875;83;21130;-74
2021/09/26 10:34:47;;;;;;;8.55;2.35;;;;;;;21.78;45.52;99684.91;1700331;83;20969;-76
2021/09/26 10:37:14;;;;;;;14.07;3.17;;;;;;;22.07;43.25;99688.72;1690182;83;20937;-81
2021/09/26 10:39:41;;;;;;;19.23;3.83;;;;;;;22.20;42.80;99680.81;1700858;83;20982;-73
2021/09/26 10:42:16;;;;;;;9.65;2.50;;;;;;;22.21;42.58;99689.41;1691528;83;21434;-72
2021/09/26 10:44:53;;;;;;;16.55;3.92;;;;;;;22.32;43.75;99685.48;1699134;84;21180;-80
2021/09/26 10:47:23;;;;;;;12.73;2.67;;;;;;;22.36;41.30;99695.28;1696549;83;20930;-87
2021/09/26 10:50:14;;;;;;;78.97;13.18;;;;;;;22.31;41.34;99687.27;1703598;83;20917;-84
2021/09/26 10:52:45;;;;;;;29.30;7.45;;;;;;;22.18;42.89;99687.39;1707810;84;20910;-71
2021/09/26 10:55:23;;;;;;;36.58;8.15;;;;;;;22.30;42.44;99691.26;1696092;83;21029;-70
2021/09/26 10:58:07;;;;;;;24.40;5.80;;;;;;;22.38;42.00;99695.10;1707662;84;21518;-71
2021/09/26 11:00:50;;;;;;;8.18;2.58;;;;;;;22.24;39.09;99697.81;1708044;84;20981;-70
2021/09/26 11:03:21;;;;;;;7.03;2.58;;;;;;;21.97;40.67;99695.00;1705202;83;20985;-73
2021/09/26 11:05:52;;;;;;;7.42;2.98;;;;;;;22.04;41.13;99691.70;1686741;83;21605;-74
2021/09/26 11:08:30;;;;;;;12.35;3.47;;;;;;;22.31;40.29;99690.87;1704740;83;20906;-69
2021/09/26 11:10:59;;;;;;;7.40;3.02;;;;;;;22.34;40.62;99693.48;1698146;83;21461;-72
2021/09/26 11:13:29;;;;;;;16.23;4.58;;;;;;;22.06;40.45;99689.91;1693086;83;21036;-70
2021/09/26 11:16:15;;;;;;;12.25;2.92;;;;;;;21.85;42.14;99694.75;1707749;84;21461;-70
2021/09/26 11:19:03;;;;;;;6.05;2.12;;;;;;;21.79;41.30;99695.50;1707221;84;21048;-70
2021/09/26 11:21:42;;;;;;;10.38;2.33;;;;;;;21.75;40.16;99690.69;1707957;83;20941;-70
2021/09/26 11:24:35;;;;;;;4.65;2.27;;;;;;;21.73;41.79;99697.84;1693181;83;21125;-70
2021/09/26 11:27:21;;;;;;;9.65;2.80;;;;;;;21.59;42.08;99685.95;1695699;83;21000;-70
2021/09/26 11:29:56;;;;;;;8.05;2.58;;;;;;;21.44;41.74;99694.00;1707792;83;21477;-68
2021/09/26 11:32:27;;;;;;;9.73;2.67;;;;;;;21.25;42.76;99697.84;1693204;83;21068;-68
2021/09/26 11:34:56;;;;;;;9.63;2.75;;;;;;;21.25;44.40;99691.45;1690063;83;20948;-68